sensor_id;sensor_type;location;lat;lon;timestamp;temperature;humidity
22360;DHT22;11347;52.030;4.690;2023-04-03T11:03:29;25.60;50.30
22360;DHT22;11347;52.030;4.690;2023-04-03T11:05:57;25.40;50.80
22360;DHT22;11347;52.030;4.690;2023-04-03T11:10:55;24.70;53.30
22360;DHT22;11347;52.030;4.690;2023-04-03T11:15:57;23.90;51.90
22360;DHT22;11347;52.030;4.690;2023-04-03T11:18:43;23.80;51.80
22360;DHT22;11347;52.030;4.690;2023-04-03T12:30:04;21.80;39.00
22360;DHT22;11347;52.030;4.690;2023-04-03T12:32:42;22.10;41.40
22360;DHT22;11347;52.030;4.690;2023-04-03T12:35:39;22.20;43.00
22360;DHT22;11347;52.030;4.690;2023-04-03T12:50:47;22.60;21.50
22360;DHT22;11347;52.030;4.690;2023-04-03T12:53:33;27.40;14.40
22360;DHT22;11347;52.030;4.690;2023-04-03T12:56:25;28.30;13.30
22360;DHT22;11347;52.030;4.690;2023-04-03T12:59:13;29.00;12.50
22360;DHT22;11347;52.030;4.690;2023-04-03T13:01:37;29.30;12.20
22360;DHT22;11347;52.030;4.690;2023-04-03T13:04:03;29.20;11.30
22360;DHT22;11347;52.030;4.690;2023-04-03T13:06:38;29.00;11.80
22360;DHT22;11347;52.030;4.690;2023-04-03T13:09:05;29.00;11.20
22360;DHT22;11347;52.030;4.690;2023-04-03T13:11:35;28.20;11.30
22360;DHT22;11347;52.030;4.690;2023-04-03T13:14:03;26.80;13.80
22360;DHT22;11347;52.030;4.690;2023-04-03T13:16:33;24.50;13.10
22360;DHT22;11347;52.030;4.690;2023-04-03T13:18:58;21.80;14.00
22360;DHT22;11347;52.030;4.690;2023-04-03T13:21:30;19.90;15.10
22360;DHT22;11347;52.030;4.690;2023-04-03T13:23:59;18.50;16.40
22360;DHT22;11347;52.030;4.690;2023-04-03T13:26:29;17.20;18.50
22360;DHT22;11347;52.030;4.690;2023-04-03T13:29:06;15.80;16.70
22360;DHT22;11347;52.030;4.690;2023-04-03T13:31:35;14.50;18.60
22360;DHT22;11347;52.030;4.690;2023-04-03T13:34:13;13.70;20.00
22360;DHT22;11347;52.030;4.690;2023-04-03T13:37:01;13.30;21.10
22360;DHT22;11347;52.030;4.690;2023-04-03T13:39:36;13.00;20.40
22360;DHT22;11347;52.030;4.690;2023-04-03T13:42:17;12.50;19.90
22360;DHT22;11347;52.030;4.690;2023-04-03T13:44:47;12.20;23.40
22360;DHT22;11347;52.030;4.690;2023-04-03T13:47:23;12.00;19.70
22360;DHT22;11347;52.030;4.690;2023-04-03T13:50:12;11.90;21.10
22360;DHT22;11347;52.030;4.690;2023-04-03T13:53:01;11.70;22.60
22360;DHT22;11347;52.030;4.690;2023-04-03T13:55:30;11.60;21.00
22360;DHT22;11347;52.030;4.690;2023-04-03T13:58:16;11.50;23.30
22360;DHT22;11347;52.030;4.690;2023-04-03T14:06:05;11.20;23.00
22360;DHT22;11347;52.030;4.690;2023-04-03T14:08:31;11.20;23.50
22360;DHT22;11347;52.030;4.690;2023-04-03T14:10:58;11.10;22.80
22360;DHT22;11347;52.030;4.690;2023-04-03T14:13:24;11.00;24.20
22360;DHT22;11347;52.030;4.690;2023-04-03T14:15:50;11.00;23.80
22360;DHT22;11347;52.030;4.690;2023-04-03T14:18:18;11.00;23.30
22360;DHT22;11347;52.030;4.690;2023-04-03T14:20:45;10.90;22.10
22360;DHT22;11347;52.030;4.690;2023-04-03T14:23:10;10.90;21.40
22360;DHT22;11347;52.030;4.690;2023-04-03T14:25:38;10.80;23.10
22360;DHT22;11347;52.030;4.690;2023-04-03T14:28:18;10.80;21.20
22360;DHT22;11347;52.030;4.690;2023-04-03T14:30:45;10.80;23.10
22360;DHT22;11347;52.030;4.690;2023-04-03T14:33:16;10.80;24.00
22360;DHT22;11347;52.030;4.690;2023-04-03T14:35:42;10.80;23.80
22360;DHT22;11347;52.030;4.690;2023-04-03T14:38:24;10.70;24.60
22360;DHT22;11347;52.030;4.690;2023-04-03T14:40:52;10.80;24.90
22360;DHT22;11347;52.030;4.690;2023-04-03T14:43:18;10.80;24.60
22360;DHT22;11347;52.030;4.690;2023-04-03T14:45:45;10.80;22.50
22360;DHT22;11347;52.030;4.690;2023-04-03T14:48:21;10.80;23.60
22360;DHT22;11347;52.030;4.690;2023-04-03T14:50:48;10.80;22.40
22360;DHT22;11347;52.030;4.690;2023-04-03T14:53:15;10.80;22.30
22360;DHT22;11347;52.030;4.690;2023-04-03T14:55:47;10.80;21.70
22360;DHT22;11347;52.030;4.690;2023-04-03T14:58:17;10.80;22.90
22360;DHT22;11347;52.030;4.690;2023-04-03T15:00:44;10.80;22.90
22360;DHT22;11347;52.030;4.690;2023-04-03T15:03:17;10.70;21.70
22360;DHT22;11347;52.030;4.690;2023-04-03T15:05:44;10.70;22.50
22360;DHT22;11347;52.030;4.690;2023-04-03T15:08:29;10.70;23.50
22360;DHT22;11347;52.030;4.690;2023-04-03T15:10:56;10.70;23.50
22360;DHT22;11347;52.030;4.690;2023-04-03T15:13:23;10.70;24.60
22360;DHT22;11347;52.030;4.690;2023-04-03T15:15:49;10.80;24.60
22360;DHT22;11347;52.030;4.690;2023-04-03T15:18:18;10.80;22.40
22360;DHT22;11347;52.030;4.690;2023-04-03T15:20:45;10.70;23.40
22360;DHT22;11347;52.030;4.690;2023-04-03T15:23:15;10.70;25.10
22360;DHT22;11347;52.030;4.690;2023-04-03T15:25:42;10.80;23.60
22360;DHT22;11347;52.030;4.690;2023-04-03T15:28:19;10.70;21.70
22360;DHT22;11347;52.030;4.690;2023-04-03T15:30:47;10.60;21.90
22360;DHT22;11347;52.030;4.690;2023-04-03T15:33:12;10.60;22.10
22360;DHT22;11347;52.030;4.690;2023-04-03T15:35:38;10.70;22.20
22360;DHT22;11347;52.030;4.690;2023-04-03T15:38:04;10.60;22.50
22360;DHT22;11347;52.030;4.690;2023-04-03T15:40:29;10.60;23.40
22360;DHT22;11347;52.030;4.690;2023-04-03T15:42:55;10.60;24.10
22360;DHT22;11347;52.030;4.690;2023-04-03T15:45:24;10.60;24.00
22360;DHT22;11347;52.030;4.690;2023-04-03T15:47:49;10.60;22.90
22360;DHT22;11347;52.030;4.690;2023-04-03T15:50:15;10.60;24.10
22360;DHT22;11347;52.030;4.690;2023-04-03T15:52:41;10.60;22.60
22360;DHT22;11347;52.030;4.690;2023-04-03T15:55:07;10.60;22.20
22360;DHT22;11347;52.030;4.690;2023-04-03T15:57:33;10.60;22.60
22360;DHT22;11347;52.030;4.690;2023-04-03T15:59:58;10.60;23.10
22360;DHT22;11347;52.030;4.690;2023-04-03T16:02:40;10.60;23.30
22360;DHT22;11347;52.030;4.690;2023-04-03T16:05:06;10.60;25.30
22360;DHT22;11347;52.030;4.690;2023-04-03T16:07:34;10.60;22.60
22360;DHT22;11347;52.030;4.690;2023-04-03T16:10:00;10.60;23.40
22360;DHT22;11347;52.030;4.690;2023-04-03T16:12:25;10.60;25.10
22360;DHT22;11347;52.030;4.690;2023-04-03T16:14:51;10.50;23.70
22360;DHT22;11347;52.030;4.690;2023-04-03T16:17:17;10.50;26.90
22360;DHT22;11347;52.030;4.690;2023-04-03T16:19:42;10.50;26.50
22360;DHT22;11347;52.030;4.690;2023-04-03T16:22:08;10.50;24.60
22360;DHT22;11347;52.030;4.690;2023-04-03T16:24:35;10.40;24.90
22360;DHT22;11347;52.030;4.690;2023-04-03T16:27:01;10.40;25.10
22360;DHT22;11347;52.030;4.690;2023-04-03T16:29:26;10.40;24.70
22360;DHT22;11347;52.030;4.690;2023-04-03T16:31:52;10.40;25.50
22360;DHT22;11347;52.030;4.690;2023-04-03T16:34:19;10.40;27.00
22360;DHT22;11347;52.030;4.690;2023-04-03T16:36:46;10.40;24.90
22360;DHT22;11347;52.030;4.690;2023-04-03T16:39:12;10.40;26.50
22360;DHT22;11347;52.030;4.690;2023-04-03T16:41:38;10.30;26.00
22360;DHT22;11347;52.030;4.690;2023-04-03T16:44:03;10.30;26.00
22360;DHT22;11347;52.030;4.690;2023-04-03T16:46:33;10.30;26.10
22360;DHT22;11347;52.030;4.690;2023-04-03T16:49:03;10.20;26.20
22360;DHT22;11347;52.030;4.690;2023-04-03T16:51:30;10.20;25.40
22360;DHT22;11347;52.030;4.690;2023-04-03T16:53:57;10.20;27.00
22360;DHT22;11347;52.030;4.690;2023-04-03T16:56:22;10.20;26.50
22360;DHT22;11347;52.030;4.690;2023-04-03T16:58:48;10.20;27.00
22360;DHT22;11347;52.030;4.690;2023-04-03T17:01:18;10.20;28.50
22360;DHT22;11347;52.030;4.690;2023-04-03T17:03:45;10.20;28.00
22360;DHT22;11347;52.030;4.690;2023-04-03T17:06:12;10.10;27.10
22360;DHT22;11347;52.030;4.690;2023-04-03T17:08:41;10.00;28.10
22360;DHT22;11347;52.030;4.690;2023-04-03T17:11:07;10.00;28.00
22360;DHT22;11347;52.030;4.690;2023-04-03T17:13:33;9.90;29.20
22360;DHT22;11347;52.030;4.690;2023-04-03T17:16:00;9.90;31.00
22360;DHT22;11347;52.030;4.690;2023-04-03T17:18:28;9.90;29.70
22360;DHT22;11347;52.030;4.690;2023-04-03T17:20:55;9.80;28.10
22360;DHT22;11347;52.030;4.690;2023-04-03T17:23:23;9.80;29.00
22360;DHT22;11347;52.030;4.690;2023-04-03T17:25:49;9.70;30.40
22360;DHT22;11347;52.030;4.690;2023-04-03T17:28:14;9.70;29.90
22360;DHT22;11347;52.030;4.690;2023-04-03T17:30:40;9.60;30.30
22360;DHT22;11347;52.030;4.690;2023-04-03T17:33:06;9.60;30.70
22360;DHT22;11347;52.030;4.690;2023-04-03T17:35:32;9.50;29.90
22360;DHT22;11347;52.030;4.690;2023-04-03T17:37:58;9.40;30.20
22360;DHT22;11347;52.030;4.690;2023-04-03T17:40:25;9.40;33.50
22360;DHT22;11347;52.030;4.690;2023-04-03T17:42:50;9.30;32.20
22360;DHT22;11347;52.030;4.690;2023-04-03T17:45:17;9.20;32.40
22360;DHT22;11347;52.030;4.690;2023-04-03T17:47:42;9.10;31.60
22360;DHT22;11347;52.030;4.690;2023-04-03T17:50:08;9.10;33.00
22360;DHT22;11347;52.030;4.690;2023-04-03T17:52:34;9.10;33.40
22360;DHT22;11347;52.030;4.690;2023-04-03T17:54:59;9.00;34.30
22360;DHT22;11347;52.030;4.690;2023-04-03T17:57:25;9.00;35.30
22360;DHT22;11347;52.030;4.690;2023-04-03T17:59:52;8.90;34.40
22360;DHT22;11347;52.030;4.690;2023-04-03T18:02:18;8.80;34.80
22360;DHT22;11347;52.030;4.690;2023-04-03T18:04:44;8.80;35.70
22360;DHT22;11347;52.030;4.690;2023-04-03T18:07:10;8.70;36.20
22360;DHT22;11347;52.030;4.690;2023-04-03T18:09:36;8.60;36.70
22360;DHT22;11347;52.030;4.690;2023-04-03T18:12:06;8.60;36.90
22360;DHT22;11347;52.030;4.690;2023-04-03T18:14:43;8.50;38.40
22360;DHT22;11347;52.030;4.690;2023-04-03T18:17:10;8.50;38.70
22360;DHT22;11347;52.030;4.690;2023-04-03T18:19:38;8.40;39.30
22360;DHT22;11347;52.030;4.690;2023-04-03T18:22:15;8.30;40.10
22360;DHT22;11347;52.030;4.690;2023-04-03T18:24:42;8.30;41.90
22360;DHT22;11347;52.030;4.690;2023-04-03T18:27:12;8.20;40.00
22360;DHT22;11347;52.030;4.690;2023-04-03T18:29:40;8.10;40.20
22360;DHT22;11347;52.030;4.690;2023-04-03T18:32:06;8.00;41.00
22360;DHT22;11347;52.030;4.690;2023-04-03T18:34:34;8.00;38.60
22360;DHT22;11347;52.030;4.690;2023-04-03T18:37:00;7.90;40.60
22360;DHT22;11347;52.030;4.690;2023-04-03T18:39:27;7.80;40.80
22360;DHT22;11347;52.030;4.690;2023-04-03T18:41:53;7.80;40.00
22360;DHT22;11347;52.030;4.690;2023-04-03T18:44:21;7.70;39.80
22360;DHT22;11347;52.030;4.690;2023-04-03T18:46:48;7.70;42.30
22360;DHT22;11347;52.030;4.690;2023-04-03T18:49:14;7.70;42.70
22360;DHT22;11347;52.030;4.690;2023-04-03T18:51:40;7.60;43.30
22360;DHT22;11347;52.030;4.690;2023-04-03T18:54:07;7.60;40.30
22360;DHT22;11347;52.030;4.690;2023-04-03T18:56:35;7.50;42.50
22360;DHT22;11347;52.030;4.690;2023-04-03T18:59:01;7.40;42.70
22360;DHT22;11347;52.030;4.690;2023-04-03T19:01:26;7.40;41.80
22360;DHT22;11347;52.030;4.690;2023-04-03T19:03:52;7.40;42.10
22360;DHT22;11347;52.030;4.690;2023-04-03T19:06:17;7.30;42.40
22360;DHT22;11347;52.030;4.690;2023-04-03T19:08:43;7.30;41.70
22360;DHT22;11347;52.030;4.690;2023-04-03T19:11:09;7.20;41.20
22360;DHT22;11347;52.030;4.690;2023-04-03T19:13:35;7.20;43.00
22360;DHT22;11347;52.030;4.690;2023-04-03T19:16:01;7.20;41.80
22360;DHT22;11347;52.030;4.690;2023-04-03T19:18:27;7.20;42.60
22360;DHT22;11347;52.030;4.690;2023-04-03T19:20:54;7.10;42.00
22360;DHT22;11347;52.030;4.690;2023-04-03T19:23:21;7.10;42.40
22360;DHT22;11347;52.030;4.690;2023-04-03T19:25:46;7.10;42.00
22360;DHT22;11347;52.030;4.690;2023-04-03T19:28:21;7.00;42.70
22360;DHT22;11347;52.030;4.690;2023-04-03T19:30:46;7.00;43.80
22360;DHT22;11347;52.030;4.690;2023-04-03T19:33:13;7.00;43.60
22360;DHT22;11347;52.030;4.690;2023-04-03T19:35:41;7.00;42.90
22360;DHT22;11347;52.030;4.690;2023-04-03T19:38:07;6.90;43.60
22360;DHT22;11347;52.030;4.690;2023-04-03T19:40:33;6.90;43.50
22360;DHT22;11347;52.030;4.690;2023-04-03T19:42:59;6.90;42.60
22360;DHT22;11347;52.030;4.690;2023-04-03T19:45:25;6.90;42.30
22360;DHT22;11347;52.030;4.690;2023-04-03T19:47:52;6.90;43.00
22360;DHT22;11347;52.030;4.690;2023-04-03T19:50:18;6.80;43.10
22360;DHT22;11347;52.030;4.690;2023-04-03T19:52:44;6.80;44.00
22360;DHT22;11347;52.030;4.690;2023-04-03T19:55:10;6.80;43.70
22360;DHT22;11347;52.030;4.690;2023-04-03T19:57:35;6.80;43.90
22360;DHT22;11347;52.030;4.690;2023-04-03T20:00:01;6.80;44.40
22360;DHT22;11347;52.030;4.690;2023-04-03T20:02:27;6.70;44.50
22360;DHT22;11347;52.030;4.690;2023-04-03T20:04:52;6.70;43.70
22360;DHT22;11347;52.030;4.690;2023-04-03T20:07:20;6.70;43.90
22360;DHT22;11347;52.030;4.690;2023-04-03T20:09:46;6.60;44.00
22360;DHT22;11347;52.030;4.690;2023-04-03T20:12:12;6.60;44.80
22360;DHT22;11347;52.030;4.690;2023-04-03T20:14:39;6.60;44.90
22360;DHT22;11347;52.030;4.690;2023-04-03T20:17:05;6.60;43.90
22360;DHT22;11347;52.030;4.690;2023-04-03T20:19:30;6.60;43.80
22360;DHT22;11347;52.030;4.690;2023-04-03T20:21:59;6.60;44.40
22360;DHT22;11347;52.030;4.690;2023-04-03T20:24:25;6.60;43.20
22360;DHT22;11347;52.030;4.690;2023-04-03T20:26:52;6.50;43.60
22360;DHT22;11347;52.030;4.690;2023-04-03T20:29:18;6.50;43.90
22360;DHT22;11347;52.030;4.690;2023-04-03T20:31:43;6.50;44.30
22360;DHT22;11347;52.030;4.690;2023-04-03T20:34:09;6.50;45.20
22360;DHT22;11347;52.030;4.690;2023-04-03T20:36:35;6.40;45.60
22360;DHT22;11347;52.030;4.690;2023-04-03T20:39:02;6.40;45.60
22360;DHT22;11347;52.030;4.690;2023-04-03T20:41:28;6.30;47.10
22360;DHT22;11347;52.030;4.690;2023-04-03T20:43:53;6.30;45.70
22360;DHT22;11347;52.030;4.690;2023-04-03T20:46:19;6.30;46.30
22360;DHT22;11347;52.030;4.690;2023-04-03T20:48:46;6.20;45.40
22360;DHT22;11347;52.030;4.690;2023-04-03T20:51:18;6.20;45.40
22360;DHT22;11347;52.030;4.690;2023-04-03T20:53:46;6.20;45.60
22360;DHT22;11347;52.030;4.690;2023-04-03T20:56:12;6.10;46.30
22360;DHT22;11347;52.030;4.690;2023-04-03T20:58:38;6.20;47.00
22360;DHT22;11347;52.030;4.690;2023-04-03T21:01:23;6.10;47.20
22360;DHT22;11347;52.030;4.690;2023-04-03T21:03:50;6.10;48.10
22360;DHT22;11347;52.030;4.690;2023-04-03T21:19:30;5.90;47.70
22360;DHT22;11347;52.030;4.690;2023-04-03T21:21:25;5.90;48.20
22360;DHT22;11347;52.030;4.690;2023-04-03T21:23:53;5.90;47.70
22360;DHT22;11347;52.030;4.690;2023-04-03T21:26:20;5.90;48.50
22360;DHT22;11347;52.030;4.690;2023-04-03T21:28:52;5.90;47.50
22360;DHT22;11347;52.030;4.690;2023-04-03T21:31:19;5.80;48.10
22360;DHT22;11347;52.030;4.690;2023-04-03T21:33:44;5.90;48.00
22360;DHT22;11347;52.030;4.690;2023-04-03T21:36:09;5.90;49.30
22360;DHT22;11347;52.030;4.690;2023-04-03T21:38:35;5.90;47.80
22360;DHT22;11347;52.030;4.690;2023-04-03T21:41:01;5.80;47.90
22360;DHT22;11347;52.030;4.690;2023-04-03T21:43:27;5.80;47.60
22360;DHT22;11347;52.030;4.690;2023-04-03T21:45:54;5.80;48.10
22360;DHT22;11347;52.030;4.690;2023-04-03T21:48:21;5.80;47.70
22360;DHT22;11347;52.030;4.690;2023-04-03T21:50:46;5.80;47.70
22360;DHT22;11347;52.030;4.690;2023-04-03T21:53:20;5.80;47.80
22360;DHT22;11347;52.030;4.690;2023-04-03T21:55:53;5.80;48.40
22360;DHT22;11347;52.030;4.690;2023-04-03T21:58:19;5.80;47.70
22360;DHT22;11347;52.030;4.690;2023-04-03T22:00:45;5.70;47.70
22360;DHT22;11347;52.030;4.690;2023-04-03T22:03:11;5.70;48.50
22360;DHT22;11347;52.030;4.690;2023-04-03T22:05:37;5.70;48.90
22360;DHT22;11347;52.030;4.690;2023-04-03T22:08:03;5.70;49.70
22360;DHT22;11347;52.030;4.690;2023-04-03T22:10:28;5.60;50.40
22360;DHT22;11347;52.030;4.690;2023-04-03T22:12:55;5.60;51.20
22360;DHT22;11347;52.030;4.690;2023-04-03T22:15:20;5.60;52.40
22360;DHT22;11347;52.030;4.690;2023-04-03T22:17:46;5.60;52.40
22360;DHT22;11347;52.030;4.690;2023-04-03T22:20:12;5.50;52.40
22360;DHT22;11347;52.030;4.690;2023-04-03T22:22:37;5.50;52.50
22360;DHT22;11347;52.030;4.690;2023-04-03T22:25:04;5.40;52.40
22360;DHT22;11347;52.030;4.690;2023-04-03T22:27:30;5.40;52.70
22360;DHT22;11347;52.030;4.690;2023-04-03T22:29:56;5.40;53.30
22360;DHT22;11347;52.030;4.690;2023-04-03T22:32:21;5.30;53.90
22360;DHT22;11347;52.030;4.690;2023-04-03T22:34:47;5.20;54.40
22360;DHT22;11347;52.030;4.690;2023-04-03T22:37:12;5.20;54.70
22360;DHT22;11347;52.030;4.690;2023-04-03T22:39:38;5.10;55.20
22360;DHT22;11347;52.030;4.690;2023-04-03T22:42:03;5.10;56.20
22360;DHT22;11347;52.030;4.690;2023-04-03T22:44:31;5.00;56.60
22360;DHT22;11347;52.030;4.690;2023-04-03T22:46:57;5.00;56.80
22360;DHT22;11347;52.030;4.690;2023-04-03T22:49:22;4.90;56.90
22360;DHT22;11347;52.030;4.690;2023-04-03T22:51:48;4.90;59.00
22360;DHT22;11347;52.030;4.690;2023-04-03T22:54:14;4.90;58.90
22360;DHT22;11347;52.030;4.690;2023-04-03T22:56:39;4.80;58.80
22360;DHT22;11347;52.030;4.690;2023-04-03T22:59:05;4.80;57.80
22360;DHT22;11347;52.030;4.690;2023-04-03T23:01:31;4.80;56.20
